createdAt,value
2022-10-05T00:01:35.802Z,7.39
2022-10-05T00:04:16.710Z,7.48
2022-10-05T00:07:08.812Z,7.58
2022-10-05T00:09:39.365Z,7.71
2022-10-05T00:12:21.123Z,7.82
2022-10-05T00:14:55.077Z,7.92
2022-10-05T00:17:28.901Z,8.02
2022-10-05T00:19:59.549Z,8.11
2022-10-05T00:22:36.404Z,8.22
2022-10-05T00:25:16.698Z,8.32
2022-10-05T00:27:50.608Z,8.39
2022-10-05T00:30:23.727Z,8.47
2022-10-05T00:32:59.284Z,8.53
2022-10-05T00:35:30.807Z,8.62
2022-10-05T00:38:01.457Z,8.69
2022-10-05T00:40:58.694Z,8.82
2022-10-05T00:44:01.608Z,8.92
2022-10-05T00:46:49.044Z,9.04
2022-10-05T00:49:38.996Z,9.14
2022-10-05T00:52:41.581Z,9.23
2022-10-05T00:55:57.351Z,9.32
2022-10-05T00:59:12.454Z,9.42
2022-10-05T01:01:55.170Z,9.53
2022-10-05T01:04:34.707Z,9.63
2022-10-05T01:07:23.699Z,9.71
2022-10-05T01:10:24.479Z,9.75
2022-10-05T01:13:14.483Z,9.81
2022-10-05T01:16:05.208Z,9.85
2022-10-05T01:18:52.992Z,9.95
2022-10-05T01:21:26.967Z,10.05
2022-10-05T01:24:15.241Z,10.16
2022-10-05T01:27:25.694Z,10.26
2022-10-05T01:30:09.033Z,10.40
2022-10-05T01:33:08.645Z,10.53
2022-10-05T01:35:54.038Z,10.61
2022-10-05T01:38:33.825Z,10.69
2022-10-05T01:41:29.048Z,10.80
2022-10-05T01:44:26.104Z,10.88
2022-10-05T01:47:33.069Z,10.92
2022-10-05T01:50:12.781Z,10.96
2022-10-05T01:52:45.844Z,10.98
2022-10-05T01:55:32.452Z,11.04
2022-10-05T01:58:09.516Z,11.10
2022-10-05T02:00:50.832Z,11.13
2022-10-05T02:03:27.443Z,11.17
2022-10-05T02:06:08.368Z,11.23
2022-10-05T02:09:14.000Z,11.30
2022-10-05T02:11:51.154Z,11.34
2022-10-05T02:14:32.574Z,11.43
2022-10-05T02:17:10.316Z,11.51
2022-10-05T02:19:54.451Z,11.60
2022-10-05T02:22:45.833Z,11.70
2022-10-05T02:25:25.356Z,11.79
2022-10-05T02:28:23.437Z,11.87
2022-10-05T02:31:06.503Z,11.95
2022-10-05T02:33:37.369Z,12.02
2022-10-05T02:36:18.548Z,12.08
2022-10-05T02:39:22.914Z,12.17
2022-10-05T02:42:31.200Z,12.27
2022-10-05T02:45:18.863Z,12.39
2022-10-05T02:48:02.128Z,12.52
2022-10-05T02:51:00.936Z,12.63
2022-10-05T02:54:10.150Z,12.71
2022-10-05T02:57:01.512Z,12.79
2022-10-05T02:59:42.720Z,12.85
2022-10-05T03:02:51.359Z,12.88
2022-10-05T03:05:48.369Z,12.94
2022-10-05T03:08:22.160Z,12.95
2022-10-05T03:11:11.589Z,12.99
2022-10-05T03:13:56.704Z,13.02
2022-10-05T03:16:43.026Z,13.03
2022-10-05T03:19:16.947Z,13.08
2022-10-05T03:21:59.267Z,13.12
2022-10-05T03:25:01.280Z,13.16
2022-10-05T03:27:31.519Z,13.22
2022-10-05T03:30:10.641Z,13.27
2022-10-05T03:32:57.168Z,13.34
2022-10-05T03:35:37.196Z,13.39
2022-10-05T03:38:25.947Z,13.46
2022-10-05T03:41:21.215Z,13.48
2022-10-05T03:44:14.921Z,13.52
2022-10-05T03:47:17.537Z,13.58
2022-10-05T03:50:15.313Z,13.63
2022-10-05T03:53:13.694Z,13.68
2022-10-05T03:55:58.877Z,13.72
2022-10-05T03:58:43.997Z,13.76
2022-10-05T04:01:24.059Z,13.81
2022-10-05T04:04:06.980Z,13.86
2022-10-05T04:06:44.213Z,13.91
2022-10-05T04:09:33.646Z,13.95
2022-10-05T04:12:14.803Z,13.98
2022-10-05T04:15:00.110Z,14.03
2022-10-05T04:17:44.764Z,14.07
2022-10-05T04:20:46.451Z,14.13
2022-10-05T04:23:53.054Z,14.18
2022-10-05T04:26:48.267Z,14.20
2022-10-05T04:29:34.417Z,14.24
2022-10-05T04:32:32.634Z,14.28
2022-10-05T04:35:43.070Z,14.30
2022-10-05T04:38:27.958Z,14.32
2022-10-05T04:41:07.350Z,14.35
2022-10-05T04:43:37.602Z,14.37
2022-10-05T04:46:26.698Z,14.37
2022-10-05T04:49:16.005Z,14.39
2022-10-05T04:52:01.316Z,14.42
2022-10-05T04:54:41.839Z,14.39
2022-10-05T04:57:56.144Z,14.39
2022-10-05T05:00:54.629Z,14.39
2022-10-05T05:03:50.970Z,14.39
2022-10-05T05:06:36.923Z,14.43
2022-10-05T05:09:20.913Z,14.51
2022-10-05T05:12:12.139Z,14.57
2022-10-05T05:15:08.760Z,14.63
2022-10-05T05:18:05.581Z,14.64
2022-10-05T05:21:19.226Z,14.63
2022-10-05T05:23:59.262Z,14.65
2022-10-05T05:26:50.879Z,14.65
2022-10-05T05:29:45.819Z,14.67
2022-10-05T05:32:25.319Z,14.70
2022-10-05T05:35:08.923Z,14.73
2022-10-05T05:37:54.179Z,14.75
2022-10-05T05:40:43.504Z,14.79
2022-10-05T05:43:22.211Z,14.82
2022-10-05T05:46:08.216Z,14.83
2022-10-05T05:48:49.421Z,14.87
2022-10-05T05:51:27.436Z,14.88
2022-10-05T05:54:05.627Z,14.90
2022-10-05T05:56:44.972Z,14.93
2022-10-05T05:59:27.973Z,14.93
2022-10-05T06:02:23.735Z,14.96
2022-10-05T06:05:04.593Z,14.95
2022-10-05T06:07:38.596Z,14.94
2022-10-05T06:10:29.025Z,14.96
2022-10-05T06:13:31.240Z,14.97
2022-10-05T06:16:07.388Z,15.00
2022-10-05T06:18:42.263Z,15.02
2022-10-05T06:21:18.779Z,15.06
2022-10-05T06:24:08.347Z,15.07
2022-10-05T06:27:05.837Z,15.08
2022-10-05T06:29:47.806Z,15.11
2022-10-05T06:32:49.111Z,15.12
2022-10-05T06:35:45.518Z,15.13
2022-10-05T06:38:47.960Z,15.14
2022-10-05T06:41:36.568Z,15.15
2022-10-05T06:44:44.651Z,15.15
2022-10-05T06:47:50.592Z,15.14
2022-10-05T06:50:39.571Z,15.11
2022-10-05T06:53:51.793Z,15.07
2022-10-05T06:56:40.256Z,15.04
2022-10-05T06:59:30.909Z,15.02
2022-10-05T07:02:08.795Z,15.00
2022-10-05T07:05:14.393Z,14.97
2022-10-05T07:08:08.846Z,14.96
2022-10-05T07:10:59.444Z,14.97
2022-10-05T07:14:03.508Z,14.94
2022-10-05T07:17:07.967Z,14.91
2022-10-05T07:19:53.962Z,14.88
2022-10-05T07:22:48.871Z,14.86
2022-10-05T07:25:30.821Z,14.85
2022-10-05T07:28:33.296Z,14.87
2022-10-05T07:31:09.147Z,14.85
2022-10-05T07:34:08.861Z,14.86
2022-10-05T07:37:37.066Z,14.82
2022-10-05T07:40:17.705Z,14.81
2022-10-05T07:43:06.555Z,14.80
2022-10-05T07:45:49.707Z,14.77
2022-10-05T07:48:37.225Z,14.73
2022-10-05T07:51:31.343Z,14.73
2022-10-05T07:54:22.899Z,14.74
2022-10-05T07:57:15.323Z,14.74
2022-10-05T07:59:58.437Z,14.72
2022-10-05T08:02:50.627Z,14.70
2022-10-05T08:05:34.538Z,14.68
2022-10-05T08:08:28.425Z,14.66
2022-10-05T08:11:33.057Z,14.65
2022-10-05T08:14:13.387Z,14.64
2022-10-05T08:16:44.782Z,14.61
2022-10-05T08:19:27.087Z,14.58
2022-10-05T08:22:03.706Z,14.56
2022-10-05T08:25:02.634Z,14.53
2022-10-05T08:27:48.958Z,14.51
2022-10-05T08:30:20.525Z,14.49
2022-10-05T08:33:16.814Z,14.45
2022-10-05T08:35:57.330Z,14.43
2022-10-05T08:38:36.836Z,14.41
2022-10-05T08:41:12.797Z,14.38
2022-10-05T08:43:51.817Z,14.37
2022-10-05T08:46:27.847Z,14.34
2022-10-05T08:49:19.253Z,14.33
2022-10-05T08:52:04.496Z,14.29
2022-10-05T08:54:44.181Z,14.23
2022-10-05T08:57:20.313Z,14.18
2022-10-05T09:00:20.896Z,14.14
2022-10-05T09:03:34.447Z,14.10
2022-10-05T09:06:18.753Z,14.05
2022-10-05T09:09:00.865Z,13.99
2022-10-05T09:12:12.420Z,13.94
2022-10-05T09:15:25.273Z,13.89
2022-10-05T09:18:27.090Z,13.86
2022-10-05T09:21:23.061Z,13.81
2022-10-05T09:24:17.970Z,13.79
2022-10-05T09:27:00.971Z,13.75
2022-10-05T09:29:49.112Z,13.71
2022-10-05T09:32:33.949Z,13.66
2022-10-05T09:35:15.641Z,13.60
2022-10-05T09:38:20.371Z,13.55
2022-10-05T09:41:11.591Z,13.48
2022-10-05T09:43:44.737Z,13.40
2022-10-05T09:46:30.788Z,13.33
2022-10-05T09:49:13.215Z,13.25
2022-10-05T09:51:55.562Z,13.17
2022-10-05T09:55:08.036Z,13.11
2022-10-05T09:58:15.746Z,13.03
2022-10-05T10:01:15.709Z,13.00
2022-10-05T10:04:11.635Z,12.98
2022-10-05T10:07:07.509Z,12.91
2022-10-05T10:09:51.657Z,12.85
2022-10-05T10:12:49.129Z,12.81
2022-10-05T10:15:55.731Z,12.76
2022-10-05T10:18:32.814Z,12.71
2022-10-05T10:21:36.477Z,12.67
2022-10-05T10:24:39.962Z,12.63
2022-10-05T10:27:52.309Z,12.58
2022-10-05T10:30:24.039Z,12.51
2022-10-05T10:33:17.055Z,12.42
2022-10-05T10:36:06.046Z,12.36
2022-10-05T10:39:00.041Z,12.29
2022-10-05T10:41:30.221Z,12.23
2022-10-05T10:44:26.441Z,12.19
2022-10-05T10:47:12.861Z,12.13
2022-10-05T10:50:00.863Z,12.08
2022-10-05T10:52:32.803Z,12.04
2022-10-05T10:55:02.891Z,11.97
2022-10-05T10:57:46.881Z,11.92
2022-10-05T11:00:32.174Z,11.90
2022-10-05T11:03:14.576Z,11.86
2022-10-05T11:05:59.989Z,11.81
2022-10-05T11:08:53.954Z,11.74
2022-10-05T11:11:38.835Z,11.69
2022-10-05T11:14:27.600Z,11.65
2022-10-05T11:17:30.792Z,11.61
2022-10-05T11:20:45.328Z,11.53
2022-10-05T11:23:18.341Z,11.46
2022-10-05T11:26:03.745Z,11.41
2022-10-05T11:29:01.437Z,11.39
2022-10-05T11:31:32.444Z,11.34
2022-10-05T11:34:29.979Z,11.28
2022-10-05T11:37:21.553Z,11.20
2022-10-05T11:40:35.025Z,11.12
2022-10-05T11:43:24.457Z,11.07
2022-10-05T11:46:20.351Z,11.05
2022-10-05T11:49:15.467Z,11.02
2022-10-05T11:51:50.003Z,10.95
2022-10-05T11:55:09.133Z,10.89
2022-10-05T11:58:10.958Z,10.79
2022-10-05T12:01:11.334Z,10.72
2022-10-05T12:04:02.935Z,10.64
2022-10-05T12:06:32.910Z,10.59
2022-10-05T12:09:24.382Z,10.52
2022-10-05T12:12:28.468Z,10.46
2022-10-05T12:15:20.848Z,10.45
2022-10-05T12:18:09.678Z,10.43
2022-10-05T12:20:56.902Z,10.40
2022-10-05T12:24:02.100Z,10.36
2022-10-05T12:26:54.448Z,10.33
2022-10-05T12:29:36.616Z,10.35
2022-10-05T12:32:14.253Z,10.35
2022-10-05T12:35:07.369Z,10.37
2022-10-05T12:37:47.780Z,10.39
2022-10-05T12:40:46.877Z,10.41
2022-10-05T12:43:41.262Z,10.40
2022-10-05T12:46:28.805Z,10.40
2022-10-05T12:49:01.868Z,10.43
2022-10-05T12:51:56.280Z,10.43
2022-10-05T12:54:44.577Z,10.42
2022-10-05T12:57:28.338Z,10.38
2022-10-05T13:00:01.587Z,10.41
2022-10-05T13:02:45.866Z,10.41
2022-10-05T13:05:22.824Z,10.45
2022-10-05T13:08:19.641Z,10.46
2022-10-05T13:11:31.806Z,10.45
2022-10-05T13:14:36.797Z,10.40
2022-10-05T13:17:33.566Z,10.38
2022-10-05T13:20:24.835Z,10.37
2022-10-05T13:23:17.779Z,10.40
2022-10-05T13:25:59.270Z,10.37
2022-10-05T13:29:17.958Z,10.36
2022-10-05T13:32:02.126Z,10.35
2022-10-05T13:34:41.753Z,10.36
2022-10-05T13:37:46.955Z,10.33
2022-10-05T13:40:26.072Z,10.31
2022-10-05T13:43:23.745Z,10.31
2022-10-05T13:46:18.599Z,10.32
2022-10-05T13:49:01.686Z,10.34
2022-10-05T13:51:43.561Z,10.33
2022-10-05T13:54:23.137Z,10.31
2022-10-05T13:57:19.137Z,10.29
2022-10-05T13:59:59.300Z,10.26
2022-10-05T14:02:40.381Z,10.23
2022-10-05T14:05:22.073Z,10.22
2022-10-05T14:07:57.365Z,10.22
2022-10-05T14:10:43.537Z,10.20
2022-10-05T14:13:36.567Z,10.16
2022-10-05T14:16:20.019Z,10.12
2022-10-05T14:19:00.462Z,10.08
2022-10-05T14:21:45.756Z,10.03
2022-10-05T14:24:53.819Z,9.95
2022-10-05T14:27:26.413Z,9.90
2022-10-05T14:30:25.214Z,9.85
2022-10-05T14:33:06.238Z,9.80
2022-10-05T14:35:55.130Z,9.79
2022-10-05T14:38:54.786Z,9.75
2022-10-05T14:41:29.736Z,9.75
2022-10-05T14:44:12.004Z,9.72
2022-10-05T14:46:55.934Z,9.68
2022-10-05T14:49:30.654Z,9.67
2022-10-05T14:52:01.295Z,9.64
2022-10-05T14:54:43.128Z,9.61
2022-10-05T14:57:33.510Z,9.57
2022-10-05T15:00:07.706Z,9.55
2022-10-05T15:02:49.514Z,9.55
2022-10-05T15:05:32.926Z,9.53
2022-10-05T15:08:14.256Z,9.51
2022-10-05T15:11:07.022Z,9.46
2022-10-05T15:13:45.638Z,9.45
2022-10-05T15:16:35.618Z,9.46
2022-10-05T15:19:17.601Z,9.48
2022-10-05T15:22:20.644Z,9.47
2022-10-05T15:25:01.272Z,9.48
2022-10-05T15:27:57.134Z,9.43
2022-10-05T15:30:27.656Z,9.36
2022-10-05T15:33:30.837Z,9.29
2022-10-05T15:36:44.285Z,9.23
2022-10-05T15:39:34.084Z,9.19
2022-10-05T15:42:18.269Z,9.13
2022-10-05T15:44:55.488Z,9.07
2022-10-05T15:47:37.786Z,9.03
2022-10-05T15:50:40.113Z,9.01
2022-10-05T15:53:21.656Z,8.99
2022-10-05T15:56:01.085Z,8.97
2022-10-05T15:58:43.135Z,8.96
2022-10-05T16:01:15.479Z,8.92
2022-10-05T16:03:49.379Z,8.91
2022-10-05T16:06:49.900Z,8.90
2022-10-05T16:09:30.712Z,8.89
2022-10-05T16:12:20.146Z,8.89
2022-10-05T16:14:58.184Z,8.89
2022-10-05T16:17:59.199Z,8.89
2022-10-05T16:20:42.866Z,8.87
2022-10-05T16:23:49.664Z,8.88
2022-10-05T16:26:39.922Z,8.88
2022-10-05T16:29:28.083Z,8.89
2022-10-05T16:32:12.198Z,8.89
2022-10-05T16:35:04.757Z,8.89
2022-10-05T16:37:42.748Z,8.89
2022-10-05T16:40:32.311Z,8.88
2022-10-05T16:43:11.724Z,8.85
2022-10-05T16:46:03.168Z,8.79
2022-10-05T16:49:02.802Z,8.75
2022-10-05T16:52:00.651Z,8.67
2022-10-05T16:54:36.579Z,8.65
2022-10-05T16:57:07.195Z,8.62
2022-10-05T16:59:43.805Z,8.59
2022-10-05T17:02:16.475Z,8.56
2022-10-05T17:05:30.673Z,8.56
2022-10-05T17:08:12.627Z,8.54
2022-10-05T17:11:01.122Z,8.52
2022-10-05T17:13:46.313Z,8.50
2022-10-05T17:16:36.337Z,8.45
2022-10-05T17:19:12.078Z,8.41
2022-10-05T17:22:01.768Z,8.39
2022-10-05T17:25:16.088Z,8.33
2022-10-05T17:28:17.857Z,8.21
2022-10-05T17:31:21.607Z,8.13
2022-10-05T17:34:14.281Z,8.10
2022-10-05T17:36:54.999Z,8.06
2022-10-05T17:39:46.918Z,8.03
2022-10-05T17:42:30.601Z,8.04
2022-10-05T17:45:20.850Z,8.06
2022-10-05T17:48:03.066Z,8.04
2022-10-05T17:51:08.455Z,8.02
2022-10-05T17:53:58.545Z,8.00
2022-10-05T17:56:29.456Z,7.96
2022-10-05T17:59:04.445Z,7.99
2022-10-05T18:01:44.164Z,8.01
2022-10-05T18:04:14.198Z,8.02
2022-10-05T18:07:02.678Z,8.03
2022-10-05T18:09:37.688Z,8.00
2022-10-05T18:12:20.802Z,8.01
2022-10-05T18:15:05.546Z,8.00
2022-10-05T18:17:48.016Z,8.00
2022-10-05T18:20:30.232Z,8.00
2022-10-05T18:23:09.074Z,8.02
2022-10-05T18:25:51.278Z,8.00
2022-10-05T18:28:27.881Z,7.95
2022-10-05T18:31:33.725Z,7.92
2022-10-05T18:34:16.163Z,7.89
2022-10-05T18:37:01.866Z,7.87
2022-10-05T18:40:10.142Z,7.84
2022-10-05T18:42:43.464Z,7.83
2022-10-05T18:45:38.925Z,7.84
2022-10-05T18:48:48.265Z,7.81
2022-10-05T18:51:35.236Z,7.80
2022-10-05T18:54:05.331Z,7.78
2022-10-05T18:56:50.708Z,7.82
2022-10-05T18:59:26.869Z,7.82
2022-10-05T19:02:21.417Z,7.82
2022-10-05T19:05:45.839Z,7.78
2022-10-05T19:08:13.946Z,7.72
2022-10-05T19:10:43.336Z,7.71
2022-10-05T19:13:28.764Z,7.69
2022-10-05T19:16:52.534Z,7.66
2022-10-05T19:19:46.211Z,7.61
2022-10-05T19:22:22.032Z,7.58
2022-10-05T19:25:15.760Z,7.58
2022-10-05T19:28:15.057Z,7.56
2022-10-05T19:30:57.407Z,7.57
2022-10-05T19:33:55.020Z,7.58
2022-10-05T19:36:30.940Z,7.56
2022-10-05T19:39:13.010Z,7.54
2022-10-05T19:41:52.085Z,7.49
2022-10-05T19:44:51.268Z,7.45
2022-10-05T19:47:41.270Z,7.41
2022-10-05T19:50:25.301Z,7.35
2022-10-05T19:53:14.704Z,7.31
2022-10-05T19:55:48.414Z,7.30
2022-10-05T19:58:42.256Z,7.32
2022-10-05T20:01:12.692Z,7.30
2022-10-05T20:03:43.947Z,7.28
2022-10-05T20:06:14.133Z,7.25
2022-10-05T20:08:47.255Z,7.22
2022-10-05T20:11:18.542Z,7.17
2022-10-05T20:13:57.462Z,7.14
2022-10-05T20:16:46.186Z,7.06
2022-10-05T20:19:56.699Z,6.97
2022-10-05T20:22:37.095Z,6.90
2022-10-05T20:25:31.773Z,6.88
2022-10-05T20:28:03.668Z,6.88
2022-10-05T20:30:36.625Z,6.90
2022-10-05T20:33:11.797Z,6.91
2022-10-05T20:35:42.425Z,6.89
2022-10-05T20:38:12.610Z,6.86
2022-10-05T20:40:42.729Z,6.83
2022-10-05T20:43:12.751Z,6.85
2022-10-05T20:45:44.756Z,6.82
2022-10-05T20:48:17.993Z,6.78
2022-10-05T20:50:48.802Z,6.75
2022-10-05T20:53:18.880Z,6.74
2022-10-05T20:55:48.900Z,6.72
2022-10-05T20:58:19.425Z,6.71
2022-10-05T21:01:08.149Z,6.69
2022-10-05T21:03:38.884Z,6.66
2022-10-05T21:06:09.230Z,6.65
2022-10-05T21:08:39.761Z,6.63
2022-10-05T21:11:12.647Z,6.60
2022-10-05T21:13:49.267Z,6.57
2022-10-05T21:16:24.124Z,6.56
2022-10-05T21:18:55.105Z,6.52
2022-10-05T21:21:27.735Z,6.52
2022-10-05T21:23:58.585Z,6.52
2022-10-05T21:26:32.141Z,6.50
2022-10-05T21:29:03.760Z,6.49
2022-10-05T21:31:33.891Z,6.47
2022-10-05T21:34:04.717Z,6.43
2022-10-05T21:36:35.010Z,6.41
2022-10-05T21:39:05.924Z,6.40
2022-10-05T21:41:35.973Z,6.40
2022-10-05T21:44:07.794Z,6.39
2022-10-05T21:46:39.620Z,6.40
2022-10-05T21:49:11.155Z,6.40
2022-10-05T21:51:41.962Z,6.40
2022-10-05T21:54:16.042Z,6.44
2022-10-05T21:56:51.799Z,6.46
2022-10-05T21:59:24.682Z,6.44
2022-10-05T22:01:55.388Z,6.39
2022-10-05T22:04:25.687Z,6.38
2022-10-05T22:06:57.433Z,6.36
2022-10-05T22:09:29.273Z,6.35
2022-10-05T22:12:00.033Z,6.35
2022-10-05T22:14:30.426Z,6.35
2022-10-05T22:17:00.508Z,6.35
2022-10-05T22:19:30.628Z,6.32
2022-10-05T22:22:01.141Z,6.31
2022-10-05T22:24:31.822Z,6.29
2022-10-05T22:27:01.972Z,6.33
2022-10-05T22:29:33.003Z,6.31
2022-10-05T22:32:03.841Z,6.33
2022-10-05T22:34:34.319Z,6.31
2022-10-05T22:37:06.091Z,6.29
2022-10-05T22:39:36.781Z,6.28
2022-10-05T22:42:07.241Z,6.28
2022-10-05T22:44:38.366Z,6.30
2022-10-05T22:47:09.842Z,6.34
2022-10-05T22:49:40.069Z,6.39
2022-10-05T22:52:10.293Z,6.43
2022-10-05T22:54:40.514Z,6.50
2022-10-05T22:57:11.224Z,6.54
2022-10-05T22:59:41.703Z,6.59
2022-10-05T23:02:12.190Z,6.66
2022-10-05T23:04:43.104Z,6.70
2022-10-05T23:07:13.398Z,6.77
2022-10-05T23:09:43.462Z,6.80
2022-10-05T23:12:15.123Z,6.88
2022-10-05T23:14:45.815Z,6.96
2022-10-05T23:17:15.875Z,7.04
2022-10-05T23:19:45.959Z,7.12
2022-10-05T23:22:16.813Z,7.18
2022-10-05T23:24:46.956Z,7.19
2022-10-05T23:27:17.783Z,7.21
2022-10-05T23:29:48.134Z,7.25
2022-10-05T23:32:18.774Z,7.29
2022-10-05T23:34:49.287Z,7.26
2022-10-05T23:37:21.017Z,7.28
2022-10-05T23:39:50.624Z,7.29
2022-10-05T23:42:21.747Z,7.34
2022-10-05T23:44:52.512Z,7.39
2022-10-05T23:47:23.242Z,7.47
2022-10-05T23:49:53.682Z,7.53
2022-10-05T23:52:24.114Z,7.62
2022-10-05T23:54:55.633Z,7.68
2022-10-05T23:57:26.326Z,7.78
2022-10-05T23:59:57.771Z,7.87
